This is the latest recevied weather packets stored in our database for station/object DO1AA. If no packets are shown the sender has not sent any weather packets the latest 10 day(s).
| Time | Temp. | Humidity | Pressure | Rain* | Wind** | Luminosity | Snow |
|---|---|---|---|---|---|---|---|
| 1777541405 | 14.44° C | 35% | 1019.7 hPa | 0 mm | - | - | - |
| 1777536604 | 12.22° C | 35% | 1020.3 hPa | 0 mm | - | - | - |
| 1777522804 | -1.67° C | 87% | 1019.7 hPa | 0 mm | - | - | - |
| 1777502404 | 1.67° C | 78% | 1018.8 hPa | 0 mm | - | - | - |
| 1777494604 | 4.44° C | 65% | 1018 hPa | 0 mm | - | - | - |
| 1777493404 | 5° C | 62% | 1017.8 hPa | 0 mm | - | - | - |
| 1777483203 | 12.78° C | 34% | 1016.7 hPa | 0 mm | - | - | - |
| 1777471205 | 13.89° C | 30% | 1016.4 hPa | 0 mm | - | - | - |
| 1777468204 | 14.44° C | 32% | 1016.6 hPa | 0 mm | - | - | - |
| 1777467007 | 14.44° C | 31% | 1016.3 hPa | 0 mm | - | - | - |
| 1777465804 | 15° C | 32% | 1016.5 hPa | 0 mm | - | - | - |
| 1777462805 | 13.89° C | 32% | 1016.6 hPa | 0 mm | - | - | - |
| 1777458605 | 13.33° C | 34% | 1017 hPa | 0 mm | - | - | - |
| 1777452006 | 11.11° C | 33% | 1017.2 hPa | 0 mm | - | - | - |
| 1777450803 | 11.11° C | 35% | 1017.1 hPa | 0 mm | - | - | - |
| 1777450202 | 10.56° C | 38% | 1016.9 hPa | 0 mm | - | - | - |
| 1777447803 | 10.56° C | 44% | 1016.6 hPa | 0 mm | - | - | - |
| 1777446604 | 10° C | 46% | 1016.1 hPa | 0 mm | - | - | - |
| 1777440004 | 6.67° C | 58% | 1015.3 hPa | 0 mm | - | - | - |
| 1777437004 | 4.44° C | 66% | 1014.6 hPa | 0 mm | - | - | - |
| 1777434003 | 3.89° C | 67% | 1014.5 hPa | 0 mm | - | - | - |
| 1777423803 | 5° C | 61% | 1013.9 hPa | 0 mm | - | - | - |
| 1777420804 | 6.11° C | 57% | 1013.8 hPa | 0 mm | - | - | - |
| 1777419004 | 6.67° C | 55% | 1013.7 hPa | 0 mm | - | - | - |
| 1777417803 | 7.22° C | 54% | 1013.4 hPa | 0 mm | - | - | - |
* Rain latest hour (hover to see other rain measurements)
** Current wind speed in m/s (hover to see current wind gust speed)